Time;durP1;ratioP1;P1;durP2;ratioP2;P2;SDS_P1;SDS_P2;PMS_P1;PMS_P2;Temp;Humidity;BMP_temperature;BMP_pressure;BME280_temperature;BME280_humidity;BME280_pressure;Samples;Min_cycle;Max_cycle;Signal;HPM_P1;HPM_P2
2023/05/11 00:01:28;;;;;;;9.15;3.40;;;11.70;99.90;;;;;;4215149;28;20047;-83
2023/05/11 00:03:29;;;;;;;7.40;3.30;;;11.60;99.90;;;;;;4216117;28;20047;-82
2023/05/11 00:05:30;;;;;;;5.43;3.33;;;11.60;99.90;;;;;;4230835;28;20069;-82
2023/05/11 00:07:31;;;;;;;6.47;3.20;;;11.60;99.90;;;;;;4231979;28;20518;-82
2023/05/11 00:09:32;;;;;;;9.40;3.72;;;11.60;99.90;;;;;;4225846;28;20035;-82
2023/05/11 00:11:33;;;;;;;6.00;3.22;;;11.70;99.90;;;;;;4232289;28;20124;-82
2023/05/11 00:13:34;;;;;;;14.05;3.60;;;11.70;99.90;;;;;;4231512;28;20047;-82
2023/05/11 00:15:36;;;;;;;15.48;3.83;;;11.70;99.90;;;;;;4231895;28;20081;-82
2023/05/11 00:17:37;;;;;;;12.18;3.70;;;11.60;99.90;;;;;;4231455;28;20507;-82
2023/05/11 00:19:38;;;;;;;8.98;3.60;;;11.60;99.90;;;;;;4232129;28;20055;-82
2023/05/11 00:21:38;;;;;;;6.80;3.72;;;11.60;99.90;;;;;;4232282;28;20982;-82
2023/05/11 00:23:39;;;;;;;7.07;4.00;;;11.60;99.90;;;;;;4239911;28;20156;-82
2023/05/11 00:25:40;;;;;;;17.17;3.88;;;11.80;99.90;;;;;;4248497;28;20035;-83
2023/05/11 00:27:44;;;;;;;18.45;4.15;;;11.70;99.90;;;;;;4237387;28;20039;-83
2023/05/11 00:29:46;;;;;;;12.60;3.63;;;11.60;99.90;;;;;;4231890;28;20460;-83
2023/05/11 00:31:47;;;;;;;12.98;3.63;;;11.60;99.90;;;;;;4231164;28;20162;-83
2023/05/11 00:33:47;;;;;;;9.93;3.78;;;11.60;99.90;;;;;;4196763;28;20045;-83
2023/05/11 00:35:48;;;;;;;6.75;3.47;;;11.60;99.90;;;;;;4231566;28;20458;-83
2023/05/11 00:37:49;;;;;;;7.63;4.03;;;11.60;99.90;;;;;;4230723;28;20078;-83
2023/05/11 00:39:50;;;;;;;35.63;4.63;;;11.70;99.90;;;;;;4232227;28;20043;-83
2023/05/11 00:41:51;;;;;;;18.50;4.18;;;11.70;99.90;;;;;;4231031;28;20048;-83
2023/05/11 00:43:51;;;;;;;6.82;3.70;;;11.60;99.90;;;;;;4231929;28;20114;-83
2023/05/11 00:45:52;;;;;;;8.52;3.50;;;11.70;99.90;;;;;;4248026;28;20054;-83
2023/05/11 00:47:53;;;;;;;10.25;3.33;;;11.60;99.90;;;;;;4248392;28;20078;-83
2023/05/11 00:49:54;;;;;;;10.82;4.05;;;11.60;99.90;;;;;;4230004;28;20039;-83
2023/05/11 00:51:56;;;;;;;7.28;3.97;;;11.70;99.90;;;;;;4248279;28;20376;-82
2023/05/11 00:53:58;;;;;;;7.03;4.07;;;11.70;99.90;;;;;;4248852;28;20114;-83
2023/05/11 00:55:58;;;;;;;9.25;3.78;;;11.70;99.90;;;;;;4248186;28;20475;-83
2023/05/11 00:57:59;;;;;;;7.75;3.40;;;11.70;99.90;;;;;;4248676;27;20043;-83
2023/05/11 01:00:02;;;;;;;5.60;3.33;;;11.70;99.90;;;;;;4250459;27;20047;-83
2023/05/11 01:02:03;;;;;;;14.65;3.63;;;11.70;99.90;;;;;;4231941;28;20052;-84
2023/05/11 01:04:04;;;;;;;11.65;3.75;;;11.60;99.90;;;;;;4238056;27;20106;-84
2023/05/11 01:06:15;;;;;;;7.78;3.42;;;11.60;99.90;;;;;;4234787;28;20497;-84
2023/05/11 01:08:35;;;;;;;20.45;3.55;;;11.60;99.90;;;;;;4234375;28;20039;-83
2023/05/11 01:10:46;;;;;;;6.20;2.50;;;11.50;99.90;;;;;;4234584;28;20043;-83
2023/05/11 01:13:28;;;;;;;13.68;3.40;;;11.50;99.90;;;;;;4237582;27;20047;-84
2023/05/11 01:15:36;;;;;;;8.73;3.65;;;11.50;99.90;;;;;;4249114;27;20117;-84
2023/05/11 01:17:52;;;;;;;6.63;3.15;;;11.50;99.90;;;;;;4250919;27;20055;-84
2023/05/11 01:20:01;;;;;;;8.98;3.50;;;11.50;99.90;;;;;;4252108;27;20043;-84
2023/05/11 01:22:18;;;;;;;6.38;3.40;;;11.50;99.90;;;;;;4245921;27;20047;-83
2023/05/11 01:24:50;;;;;;;5.85;2.97;;;11.50;99.90;;;;;;4250793;27;20065;-84
2023/05/11 01:27:02;;;;;;;4.72;2.95;;;11.50;99.90;;;;;;4217861;28;20079;-84
2023/05/11 01:29:27;;;;;;;10.55;3.20;;;11.50;99.90;;;;;;4251561;27;20046;-83
2023/05/11 01:31:31;;;;;;;6.97;3.00;;;11.50;99.90;;;;;;4251171;27;20039;-82
2023/05/11 01:33:34;;;;;;;5.75;3.05;;;11.40;99.90;;;;;;4250919;27;20127;-83
2023/05/11 01:35:40;;;;;;;6.22;3.30;;;11.40;99.90;;;;;;4251190;27;20078;-82
2023/05/11 01:37:48;;;;;;;5.28;3.25;;;11.50;99.90;;;;;;4241850;27;20552;-83
2023/05/11 01:39:55;;;;;;;4.93;3.28;;;11.50;99.90;;;;;;4233649;28;20119;-83
2023/05/11 01:42:01;;;;;;;4.60;2.75;;;11.50;99.90;;;;;;4234014;28;20039;-82
2023/05/11 01:44:05;;;;;;;6.03;2.63;;;11.50;99.90;;;;;;4216120;28;20566;-83
2023/05/11 01:46:09;;;;;;;4.70;2.92;;;11.50;99.90;;;;;;4234051;28;20043;-83
2023/05/11 01:48:21;;;;;;;8.50;2.95;;;11.50;99.90;;;;;;4234219;28;20087;-83
2023/05/11 01:50:25;;;;;;;8.32;3.10;;;11.50;99.90;;;;;;4233528;28;20120;-82
2023/05/11 01:52:26;;;;;;;10.10;3.78;;;11.50;99.90;;;;;;4233569;28;20042;-82
2023/05/11 01:54:29;;;;;;;5.05;2.85;;;11.50;99.90;;;;;;4238139;27;20566;-83
2023/05/11 01:56:32;;;;;;;6.45;3.25;;;11.50;99.90;;;;;;4250624;27;20103;-83
2023/05/11 01:58:35;;;;;;;9.55;2.65;;;11.50;99.90;;;;;;4250852;27;20039;-82
2023/05/11 02:00:37;;;;;;;4.78;3.15;;;11.50;99.90;;;;;;4248579;27;20122;-83
2023/05/11 02:02:39;;;;;;;6.53;2.35;;;11.50;99.90;;;;;;4250925;27;20120;-83
2023/05/11 02:04:41;;;;;;;8.70;2.50;;;11.50;99.90;;;;;;4239447;27;20399;-83
2023/05/11 02:06:43;;;;;;;6.13;2.08;;;11.40;99.90;;;;;;4233275;28;20043;-83
2023/05/11 02:08:45;;;;;;;2.70;1.92;;;11.50;99.90;;;;;;4233807;28;20052;-83
2023/05/11 02:10:48;;;;;;;3.85;2.35;;;11.50;99.90;;;;;;4231867;28;20043;-83
2023/05/11 02:12:51;;;;;;;8.70;2.60;;;11.50;99.90;;;;;;4220448;28;20052;-83
2023/05/11 02:14:53;;;;;;;6.00;2.60;;;11.40;99.90;;;;;;4249757;27;20050;-82
2023/05/11 02:16:56;;;;;;;10.35;2.65;;;11.40;99.90;;;;;;4250360;27;20047;-83
2023/05/11 02:18:58;;;;;;;5.35;2.78;;;11.50;99.90;;;;;;4246796;27;20043;-83
2023/05/11 02:21:00;;;;;;;5.95;2.65;;;11.40;99.90;;;;;;4232673;28;20110;-82
2023/05/11 02:23:02;;;;;;;4.28;2.53;;;11.40;99.90;;;;;;4233093;28;20069;-83
2023/05/11 02:25:04;;;;;;;4.50;2.40;;;11.40;99.90;;;;;;4223075;28;20563;-83
2023/05/11 02:27:05;;;;;;;6.13;2.53;;;11.40;99.90;;;;;;4250016;27;20126;-82
2023/05/11 02:29:06;;;;;;;5.03;2.97;;;11.40;99.90;;;;;;4249781;27;20544;-82
2023/05/11 02:31:13;;;;;;;8.35;2.83;;;11.40;99.90;;;;;;4247663;27;20122;-83
2023/05/11 02:33:25;;;;;;;25.90;2.90;;;11.40;99.90;;;;;;4250347;27;20054;-83
2023/05/11 02:35:35;;;;;;;5.85;3.00;;;11.40;99.90;;;;;;4231628;28;20051;-83
2023/05/11 02:37:42;;;;;;;4.43;2.35;;;11.30;99.90;;;;;;4250026;27;20126;-83
2023/05/11 02:39:47;;;;;;;8.50;3.17;;;11.30;99.90;;;;;;4250272;27;20126;-82
2023/05/11 02:41:55;;;;;;;6.88;2.90;;;11.30;99.90;;;;;;4249282;27;20043;-82
2023/05/11 02:44:02;;;;;;;6.30;2.83;;;11.20;99.90;;;;;;4250291;27;20095;-83
2023/05/11 02:46:07;;;;;;;6.47;2.95;;;11.30;99.90;;;;;;4249445;27;20042;-82
2023/05/11 02:48:16;;;;;;;4.88;2.90;;;11.30;99.90;;;;;;4233027;27;20471;-82
2023/05/11 02:50:18;;;;;;;5.07;2.80;;;11.30;99.90;;;;;;4234003;28;20043;-83
2023/05/11 02:52:21;;;;;;;12.75;3.60;;;11.30;99.90;;;;;;4233822;28;20044;-82
2023/05/11 02:54:23;;;;;;;27.27;4.05;;;11.30;99.90;;;;;;4233275;28;20407;-83
2023/05/11 02:56:25;;;;;;;10.57;3.88;;;11.20;99.90;;;;;;4232967;28;20040;-82
2023/05/11 02:58:26;;;;;;;10.88;4.40;;;11.20;99.90;;;;;;4232350;28;20051;-82
2023/05/11 03:00:27;;;;;;;15.70;4.63;;;11.20;99.90;;;;;;4238258;27;20042;-83
2023/05/11 03:02:28;;;;;;;14.30;5.03;;;11.20;99.90;;;;;;4249922;27;20039;-83
2023/05/11 03:04:29;;;;;;;14.43;6.32;;;11.20;99.90;;;;;;4231081;28;20563;-83
2023/05/11 03:06:32;;;;;;;31.08;6.80;;;11.20;99.90;;;;;;4215455;28;20538;-83
2023/05/11 03:08:33;;;;;;;16.08;5.93;;;11.20;99.90;;;;;;4232745;28;20543;-83
2023/05/11 03:10:34;;;;;;;14.90;6.13;;;11.20;99.90;;;;;;4236924;27;20039;-83
2023/05/11 03:12:35;;;;;;;20.98;6.30;;;11.20;99.90;;;;;;4249232;27;20096;-82
2023/05/11 03:14:37;;;;;;;25.83;6.47;;;11.20;99.90;;;;;;4250477;27;20043;-83
2023/05/11 03:16:39;;;;;;;23.40;7.65;;;11.20;99.90;;;;;;4231815;28;20485;-82
2023/05/11 03:18:41;;;;;;;29.25;8.60;;;11.20;99.90;;;;;;4250311;27;20064;-83
2023/05/11 03:20:43;;;;;;;16.30;6.80;;;11.20;99.90;;;;;;4244235;27;20496;-83
2023/05/11 03:22:45;;;;;;;28.15;7.78;;;11.20;99.90;;;;;;4232262;28;20487;-83
2023/05/11 03:24:46;;;;;;;22.05;8.10;;;11.20;99.90;;;;;;4232872;28;20067;-84
2023/05/11 03:26:49;;;;;;;52.25;9.55;;;11.30;99.90;;;;;;4232628;28;20097;-82
2023/05/11 03:28:51;;;;;;;32.47;9.85;;;11.30;99.90;;;;;;4233149;28;20040;-82
2023/05/11 03:30:53;;;;;;;27.30;9.13;;;11.30;99.90;;;;;;4232512;28;20044;-83
2023/05/11 03:32:54;;;;;;;29.75;8.90;;;11.30;99.90;;;;;;4214712;28;20039;-83
2023/05/11 03:34:54;;;;;;;27.23;9.15;;;11.30;99.90;;;;;;4233112;28;20067;-82
2023/05/11 03:36:57;;;;;;;25.05;9.63;;;11.30;99.90;;;;;;4235527;27;20042;-82
2023/05/11 03:39:00;;;;;;;50.70;10.07;;;11.30;99.90;;;;;;4239299;27;20046;-83
2023/05/11 03:41:01;;;;;;;30.80;9.73;;;11.30;99.90;;;;;;4248727;27;20055;-83
2023/05/11 03:43:04;;;;;;;30.33;10.07;;;11.20;99.90;;;;;;4231265;28;20054;-83
2023/05/11 03:45:08;;;;;;;30.70;9.27;;;11.40;99.90;;;;;;4249143;27;20039;-83
2023/05/11 03:47:10;;;;;;;35.45;10.15;;;11.30;99.90;;;;;;4231297;28;20048;-83
2023/05/11 03:49:12;;;;;;;31.80;10.75;;;11.30;99.90;;;;;;4249447;27;20064;-82
2023/05/11 03:51:13;;;;;;;38.40;11.60;;;11.30;99.90;;;;;;4248066;27;20035;-82
2023/05/11 03:53:15;;;;;;;35.75;11.23;;;11.30;99.90;;;;;;4249826;27;20080;-82
2023/05/11 03:55:16;;;;;;;40.30;10.93;;;11.30;99.90;;;;;;4249110;27;20049;-82
2023/05/11 03:57:16;;;;;;;32.58;10.82;;;11.30;99.90;;;;;;4244828;27;20577;-83
2023/05/11 03:59:21;;;;;;;29.95;10.82;;;11.30;99.90;;;;;;4249932;27;20111;-83
2023/05/11 04:01:22;;;;;;;31.60;9.15;;;11.30;99.90;;;;;;4249802;27;20042;-83
2023/05/11 04:03:23;;;;;;;34.78;10.38;;;11.20;99.90;;;;;;4249836;27;20031;-83
2023/05/11 04:05:24;;;;;;;37.00;9.15;;;11.30;99.90;;;;;;4249442;27;20035;-83
2023/05/11 04:07:24;;;;;;;34.83;11.38;;;11.30;99.90;;;;;;4249674;27;20040;-82
2023/05/11 04:09:25;;;;;;;36.22;11.50;;;11.30;99.90;;;;;;4248848;28;20038;-83
2023/05/11 04:11:28;;;;;;;29.42;9.48;;;11.30;99.90;;;;;;4250017;28;20536;-83
2023/05/11 04:13:29;;;;;;;33.72;11.02;;;11.30;99.90;;;;;;4229891;28;20092;-82
2023/05/11 04:15:30;;;;;;;31.05;9.30;;;11.30;99.90;;;;;;4248787;28;20043;-83
2023/05/11 04:17:31;;;;;;;27.02;9.80;;;11.30;99.90;;;;;;4230959;28;20055;-83
2023/05/11 04:19:31;;;;;;;29.95;9.35;;;11.30;99.90;;;;;;4248692;28;20035;-83
2023/05/11 04:21:32;;;;;;;28.33;9.13;;;;;;;;;;4213747;28;20052;-82
2023/05/11 04:23:33;;;;;;;24.90;8.02;;;;;;;;;;4249013;28;20120;-83
2023/05/11 04:25:35;;;;;;;25.63;8.82;;;;;;;;;;4249410;28;20051;-82
2023/05/11 04:27:36;;;;;;;28.38;7.50;;;;;;;;;;4249427;28;20437;-83
2023/05/11 04:29:38;;;;;;;22.50;7.60;;;;;;;;;;4237449;28;20392;-83
2023/05/11 04:31:39;;;;;;;19.92;7.53;;;;;;;;;;4233433;28;20541;-82
2023/05/11 04:33:40;;;;;;;18.38;7.63;;;;;;;;;;4234486;28;20407;-83
2023/05/11 04:35:41;;;;;;;25.52;6.95;;;;;;;;;;4235840;28;20047;-83
2023/05/11 04:37:42;;;;;;;22.67;7.05;;;;;;;;;;4235560;28;20067;-83
2023/05/11 04:39:43;;;;;;;15.50;6.72;;;;;;;;;;4270042;27;20047;-84
2023/05/11 04:41:44;;;;;;;17.05;6.78;;;;;;;;;;4270372;27;20057;-84
2023/05/11 04:43:46;;;;;;;21.33;6.75;;;;;;;;;;4270710;27;20046;-83
2023/05/11 04:45:48;;;;;;;15.73;6.88;;;;;;;;;;4270267;27;20424;-83
2023/05/11 04:47:49;;;;;;;15.20;6.90;;;;;;;;;;4244225;27;20518;-83
2023/05/11 04:49:50;;;;;;;19.35;7.65;;;;;;;;;;4253310;27;20154;-83
2023/05/11 04:51:51;;;;;;;23.60;6.13;;;;;;;;;;4251913;27;20054;-81
2023/05/11 04:53:52;;;;;;;19.63;7.35;;;;;;;;;;4252639;27;20088;-81
2023/05/11 04:55:54;;;;;;;12.40;5.65;;;;;;;;;;4248815;27;20487;-82
2023/05/11 04:57:55;;;;;;;16.42;7.72;;;;;;;;;;4250254;27;20444;-81
2023/05/11 04:59:56;;;;;;;21.40;7.65;;;;;;;;;;4236058;28;20127;-81
2023/05/11 05:01:57;;;;;;;16.85;7.93;;;;;;;;;;4228400;28;20050;-82
2023/05/11 05:03:58;;;;;;;19.15;7.50;;;;;;;;;;4252337;27;20043;-82
2023/05/11 05:05:59;;;;;;;20.20;8.05;;;;;;;;;;4252192;27;20574;-81
2023/05/11 05:08:00;;;;;;;20.48;8.40;;;;;;;;;;4252472;27;20066;-82
2023/05/11 05:10:04;;;;;;;18.30;8.00;;;;;;;;;;4233810;28;20062;-81
2023/05/11 05:12:06;;;;;;;15.27;7.32;;;;;;;;;;4234367;28;20043;-82
2023/05/11 05:14:07;;;;;;;14.88;6.78;;;;;;;;;;4252961;27;20117;-81
2023/05/11 05:16:08;;;;;;;12.40;5.63;;;;;;;;;;4251286;27;20055;-81
2023/05/11 05:18:10;;;;;;;15.38;6.38;;;;;;;;;;4252356;27;20043;-82
2023/05/11 05:20:11;;;;;;;14.38;5.30;;;;;;;;;;4243341;27;20400;-81
2023/05/11 05:22:12;;;;;;;11.13;5.50;;;;;;;;;;4235224;28;20043;-83
2023/05/11 05:24:15;;;;;;;13.25;5.72;;;;;;;;;;4234475;28;20052;-82
2023/05/11 05:26:16;;;;;;;8.85;4.80;;;;;;;;;;4235418;28;20042;-83
2023/05/11 05:28:17;;;;;;;9.30;4.90;;;;;;;;;;4234327;28;20044;-82
2023/05/11 05:30:18;;;;;;;13.35;4.82;;;;;;;;;;4216409;28;20048;-82
2023/05/11 05:32:19;;;;;;;12.13;5.00;;;;;;;;;;4235068;28;20051;-82
2023/05/11 05:34:20;;;;;;;12.50;5.47;;;;;;;;;;4216507;28;20090;-83
2023/05/11 05:36:22;;;;;;;9.60;5.35;;;;;;;;;;4235029;28;20039;-82
2023/05/11 05:38:24;;;;;;;6.85;3.42;;;;;;;;;;4246005;27;20429;-82
2023/05/11 05:40:26;;;;;;;7.05;3.50;;;;;;;;;;4251789;27;20062;-82
2023/05/11 05:42:27;;;;;;;6.15;3.10;;;;;;;;;;4251890;27;20144;-82
2023/05/11 05:44:28;;;;;;;6.90;3.25;;;;;;;;;;4251347;27;20074;-82
2023/05/11 05:46:30;;;;;;;7.10;3.65;;;;;;;;;;4216084;28;20435;-83
2023/05/11 05:48:31;;;;;;;5.97;3.22;;;;;;;;;;4250594;27;20043;-83
2023/05/11 05:50:32;;;;;;;7.40;3.60;;;;;;;;;;4251409;27;20035;-83
2023/05/11 05:52:33;;;;;;;6.88;3.25;;;;;;;;;;4234075;27;20169;-83
2023/05/11 05:54:34;;;;;;;5.28;2.67;;;;;;;;;;4234173;27;20295;-83
2023/05/11 05:56:36;;;;;;;4.15;2.28;;;;;;;;;;4248878;27;20507;-83
2023/05/11 05:58:37;;;;;;;4.88;2.65;;;;;;;;;;4246011;27;20475;-84
2023/05/11 06:00:38;;;;;;;4.25;2.15;;;;;;;;;;4250737;27;20073;-83
2023/05/11 06:02:40;;;;;;;5.35;2.67;;;;;;;;;;4250385;27;20394;-84
2023/05/11 06:04:41;;;;;;;5.65;2.67;;;11.30;99.90;;;;;;4250146;27;20047;-84
2023/05/11 06:06:41;;;;;;;4.50;2.53;;;12.50;99.90;;;;;;4250424;27;20490;-84
2023/05/11 06:08:42;;;;;;;5.80;2.47;;;11.80;99.90;;;;;;4249540;27;20046;-83
2023/05/11 06:10:43;;;;;;;4.10;2.65;;;11.80;99.90;;;;;;4247435;27;20054;-84
2023/05/11 06:12:44;;;;;;;6.30;3.03;;;11.80;99.90;;;;;;4237182;27;20031;-84
2023/05/11 06:14:44;;;;;;;5.75;2.47;;;11.80;99.90;;;;;;4213194;28;20495;-84
2023/05/11 06:16:45;;;;;;;11.80;3.47;;;11.90;99.90;;;;;;4231643;28;20050;-84
2023/05/11 06:18:46;;;;;;;11.27;4.47;;;11.90;99.90;;;;;;4232810;28;20050;-84
2023/05/11 06:20:46;;;;;;;8.73;3.78;;;11.90;99.90;;;;;;4231626;28;20075;-84
2023/05/11 06:22:47;;;;;;;11.98;4.63;;;11.90;99.90;;;;;;4232329;28;20170;-84
2023/05/11 06:24:48;;;;;;;8.30;3.75;;;11.90;99.90;;;;;;4232976;28;20062;-84
2023/05/11 06:26:48;;;;;;;6.40;3.40;;;12.00;99.90;;;;;;4215132;28;20044;-84
2023/05/11 06:28:49;;;;;;;8.82;3.55;;;;;;;;;;4233527;28;20047;-84
2023/05/11 06:30:50;;;;;;;9.18;4.05;;;;;;;;;;4214388;28;20048;-84
2023/05/11 06:32:51;;;;;;;7.32;3.25;;;12.10;99.90;;;;;;4235292;27;20046;-84
2023/05/11 06:34:52;;;;;;;7.60;3.30;;;12.20;99.90;;;;;;4233658;28;20071;-84
2023/05/11 06:36:52;;;;;;;7.47;3.38;;;12.30;99.90;;;;;;4215202;28;20093;-84
2023/05/11 06:38:53;;;;;;;11.55;3.65;;;12.30;99.90;;;;;;4232847;28;20464;-87
2023/05/11 06:40:53;;;;;;;7.32;4.00;;;12.30;99.90;;;;;;4234212;28;20039;-83
2023/05/11 06:42:54;;;;;;;8.98;3.60;;;12.30;99.90;;;;;;4234822;27;20047;-83
2023/05/11 06:44:55;;;;;;;8.38;4.22;;;12.40;99.90;;;;;;4238630;27;20031;-84
2023/05/11 06:46:55;;;;;;;9.35;5.10;;;12.40;99.90;;;;;;4248012;27;20039;-84
2023/05/11 06:48:56;;;;;;;12.32;4.25;;;12.50;99.90;;;;;;4240120;27;20487;-82
2023/05/11 06:50:57;;;;;;;12.15;4.03;;;12.50;99.90;;;;;;4252847;27;20088;-83
2023/05/11 06:52:57;;;;;;;12.55;5.97;;;12.50;99.90;;;;;;4252048;27;20047;-83
2023/05/11 06:55:00;;;;;;;10.43;5.13;;;12.50;99.90;;;;;;4245148;27;20048;-84
2023/05/11 06:57:02;;;;;;;9.60;5.20;;;12.50;99.90;;;;;;4246396;27;20051;-83
2023/05/11 06:59:03;;;;;;;9.55;4.60;;;12.60;99.90;;;;;;4244449;27;20569;-83
2023/05/11 07:01:06;;;;;;;11.73;5.43;;;12.70;99.90;;;;;;4240042;27;20048;-83
2023/05/11 07:03:10;;;;;;;11.60;5.93;;;12.70;99.90;;;;;;4250440;27;20070;-83
2023/05/11 07:05:11;;;;;;;12.25;6.00;;;12.70;99.90;;;;;;4237544;27;20067;-83
2023/05/11 07:07:12;;;;;;;12.13;5.18;;;12.80;99.90;;;;;;4245714;27;20043;-83
2023/05/11 07:09:12;;;;;;;11.15;5.15;;;12.90;99.90;;;;;;4248374;27;20126;-83
2023/05/11 07:11:14;;;;;;;12.40;6.47;;;12.90;99.90;;;;;;4238151;27;20112;-83
2023/05/11 07:13:15;;;;;;;10.10;5.57;;;13.00;99.90;;;;;;4247686;27;20038;-83
2023/05/11 07:15:16;;;;;;;9.38;5.07;;;13.00;99.90;;;;;;4237521;27;20054;-81
2023/05/11 07:17:17;;;;;;;9.02;4.97;;;13.00;99.90;;;;;;4247587;27;20047;-82
2023/05/11 07:19:18;;;;;;;10.00;5.57;;;13.00;99.90;;;;;;4250861;27;20062;-82
2023/05/11 07:21:20;;;;;;;11.25;5.80;;;13.10;99.90;;;;;;4250389;27;20051;-82
2023/05/11 07:23:21;;;;;;;9.75;5.07;;;13.10;99.90;;;;;;4244163;27;20109;-82
2023/05/11 07:25:22;;;;;;;9.98;4.30;;;13.10;99.90;;;;;;4233903;28;20051;-82
2023/05/11 07:27:24;;;;;;;11.25;5.32;;;13.10;99.90;;;;;;4234133;28;20039;-82
2023/05/11 07:29:26;;;;;;;10.52;4.72;;;13.20;99.90;;;;;;4247097;27;20047;-82
2023/05/11 07:31:28;;;;;;;10.93;4.90;;;13.10;99.90;;;;;;4232314;28;20053;-82
2023/05/11 07:33:29;;;;;;;10.07;4.90;;;13.10;99.90;;;;;;4251028;27;20091;-82
2023/05/11 07:35:31;;;;;;;10.80;5.05;;;13.10;99.90;;;;;;4227679;28;20122;-82
2023/05/11 07:37:32;;;;;;;10.68;5.90;;;13.10;99.90;;;;;;4250869;27;20062;-82
2023/05/11 07:39:33;;;;;;;10.32;4.68;;;13.10;99.90;;;;;;4231769;28;20051;-83
2023/05/11 07:41:33;;;;;;;11.73;4.78;;;13.20;99.90;;;;;;4250774;27;20072;-82
2023/05/11 07:43:34;;;;;;;8.88;4.63;;;13.20;99.90;;;;;;4250794;27;20070;-82
2023/05/11 07:45:35;;;;;;;10.55;5.00;;;13.20;99.90;;;;;;4250506;27;20047;-82
2023/05/11 07:47:37;;;;;;;10.82;5.70;;;13.20;99.90;;;;;;4233380;28;20195;-82
2023/05/11 07:49:38;;;;;;;11.40;5.22;;;13.20;99.90;;;;;;4251192;27;20039;-82
2023/05/11 07:51:39;;;;;;;9.07;4.85;;;13.20;99.90;;;;;;4253069;27;20475;-82
2023/05/11 07:53:40;;;;;;;10.77;4.95;;;13.20;99.90;;;;;;4248660;27;20103;-83
2023/05/11 07:55:42;;;;;;;8.88;4.45;;;13.20;99.90;;;;;;4233802;28;20085;-82
2023/05/11 07:57:42;;;;;;;9.55;4.72;;;13.20;99.90;;;;;;4250949;27;20493;-83
2023/05/11 07:59:43;;;;;;;9.18;4.95;;;13.20;99.90;;;;;;4250186;27;20050;-82
2023/05/11 08:01:45;;;;;;;9.90;5.43;;;13.20;99.90;;;;;;4251442;27;20043;-83
2023/05/11 08:03:46;;;;;;;9.20;4.97;;;13.20;99.90;;;;;;4247193;27;20071;-84
2023/05/11 08:05:47;;;;;;;9.52;4.90;;;13.20;99.90;;;;;;4207114;28;20044;-83
2023/05/11 08:07:49;;;;;;;11.88;8.43;;;13.20;99.90;;;;;;4237682;27;20743;-83
2023/05/11 08:09:51;;;;;;;10.90;5.78;;;13.30;99.90;;;;;;4239566;28;20097;-84
2023/05/11 08:11:52;;;;;;;10.57;4.50;;;13.30;99.90;;;;;;4228624;28;20492;-84
2023/05/11 08:13:53;;;;;;;9.48;4.60;;;13.30;99.90;;;;;;4235214;28;20119;-83
2023/05/11 08:15:54;;;;;;;8.27;4.68;;;13.30;99.90;;;;;;4229050;28;20048;-84
2023/05/11 08:17:55;;;;;;;8.75;4.00;;;13.40;99.90;;;;;;4234611;28;20483;-83
2023/05/11 08:19:56;;;;;;;7.05;4.28;;;13.40;99.90;;;;;;4247415;28;20067;-83
2023/05/11 08:21:56;;;;;;;9.90;5.18;;;13.40;99.90;;;;;;4241699;27;20042;-84
2023/05/11 08:23:57;;;;;;;7.03;3.95;;;13.40;99.90;;;;;;4246515;28;20047;-84
2023/05/11 08:25:58;;;;;;;8.80;4.38;;;13.50;99.90;;;;;;4235704;28;20072;-84
2023/05/11 08:27:59;;;;;;;6.22;3.28;;;13.50;99.90;;;;;;4247559;28;20501;-84
2023/05/11 08:30:00;;;;;;;6.30;3.83;;;13.50;99.90;;;;;;4239321;28;20551;-84
2023/05/11 08:32:01;;;;;;;7.55;3.88;;;13.50;99.90;;;;;;4237926;28;20031;-84
2023/05/11 08:34:02;;;;;;;7.28;4.00;;;13.60;99.90;;;;;;4227930;28;20127;-84
2023/05/11 08:36:03;;;;;;;9.27;3.80;;;13.50;99.90;;;;;;4245871;28;20126;-84
2023/05/11 08:38:04;;;;;;;6.57;3.63;;;13.50;99.90;;;;;;4244929;28;20035;-85
2023/05/11 08:40:05;;;;;;;8.27;3.85;;;13.40;99.90;;;;;;4238506;28;20058;-84
2023/05/11 08:42:07;;;;;;;6.90;4.03;;;13.50;99.90;;;;;;4246863;28;20340;-84
2023/05/11 08:44:09;;;;;;;6.60;3.92;;;13.50;99.90;;;;;;4237149;28;20067;-84
2023/05/11 08:46:12;;;;;;;8.35;4.50;;;13.50;99.90;;;;;;4227605;28;20035;-84
2023/05/11 08:48:16;;;;;;;6.90;3.80;;;13.50;99.90;;;;;;4232224;28;20043;-84
2023/05/11 08:50:17;;;;;;;6.65;3.75;;;13.50;99.90;;;;;;4244011;28;20052;-84
2023/05/11 08:52:18;;;;;;;8.68;4.25;;;13.50;99.90;;;;;;4238108;28;20394;-84
2023/05/11 08:54:19;;;;;;;15.23;4.95;;;13.50;99.90;;;;;;4234657;28;20043;-84
2023/05/11 08:56:23;;;;;;;9.77;4.32;;;13.60;99.90;;;;;;4246362;28;20039;-83
2023/05/11 08:58:25;;;;;;;8.68;4.65;;;13.50;99.90;;;;;;4236658;28;20039;-83
2023/05/11 09:00:28;;;;;;;7.57;4.13;;;13.60;99.90;;;;;;4244259;28;20120;-83
2023/05/11 09:02:31;;;;;;;7.82;4.55;;;13.70;99.90;;;;;;4237823;28;20402;-83
2023/05/11 09:04:33;;;;;;;9.55;4.47;;;13.70;99.90;;;;;;4225820;28;20058;-83
2023/05/11 09:06:34;;;;;;;6.55;4.28;;;13.80;99.90;;;;;;4247089;28;20043;-83
2023/05/11 09:08:36;;;;;;;8.15;4.22;;;13.90;99.90;;;;;;4224877;28;20561;-83
2023/05/11 09:10:37;;;;;;;7.93;4.45;;;13.90;99.90;;;;;;4243779;28;20118;-83
2023/05/11 09:12:38;;;;;;;9.85;5.00;;;14.00;99.90;;;;;;4246852;28;20039;-83
2023/05/11 09:14:39;;;;;;;7.90;4.47;;;14.10;99.90;;;;;;4244737;28;20472;-83
2023/05/11 09:16:40;;;;;;;8.43;4.80;;;14.20;99.90;;;;;;4246461;28;20066;-83
2023/05/11 09:18:49;;;;;;;10.10;4.43;;;14.20;99.90;;;;;;4247974;28;20043;-84
2023/05/11 09:20:51;;;;;;;9.68;5.68;;;14.30;99.90;;;;;;4222056;28;20048;-85
2023/05/11 09:22:53;;;;;;;9.93;5.45;;;14.40;99.90;;;;;;4233774;28;20510;-85
2023/05/11 09:24:54;;;;;;;10.45;5.28;;;14.50;99.90;;;;;;4231681;28;20082;-85
2023/05/11 09:27:09;;;;;;;11.07;4.97;;;14.60;99.90;;;;;;4247775;27;20035;-84
2023/05/11 09:29:10;;;;;;;9.43;5.43;;;14.70;99.90;;;;;;4226133;28;20068;-84
2023/05/11 09:31:12;;;;;;;11.77;5.55;;;14.70;99.90;;;;;;4250667;27;20040;-84
2023/05/11 09:33:22;;;;;;;9.25;5.22;;;14.70;99.90;;;;;;4247887;27;20046;-84
2023/05/11 09:35:25;;;;;;;9.27;5.05;;;;;;;;;;4241621;27;20379;-84
2023/05/11 09:37:26;;;;;;;10.20;5.72;;;;;;;;;;4244337;27;20032;-83
2023/05/11 09:39:33;;;;;;;8.02;5.00;;;;;;;;;;4241454;27;20043;-83
2023/05/11 09:41:35;;;;;;;10.98;5.45;;;;;;;;;;4254871;27;20043;-83
2023/05/11 09:43:36;;;;;;;9.30;5.43;;;;;;;;;;4246572;27;20050;-83
2023/05/11 09:45:38;;;;;;;8.27;5.07;;;;;;;;;;4241559;27;20086;-83
2023/05/11 09:47:39;;;;;;;9.50;4.90;;;;;;;;;;4224325;28;20081;-84
2023/05/11 09:49:44;;;;;;;9.63;5.20;;;;;;;;;;4251266;27;20039;-83
2023/05/11 09:51:45;;;;;;;9.35;5.18;;;;;;;;;;4252147;27;20556;-83
2023/05/11 09:53:47;;;;;;;9.00;5.13;;;;;;;;;;4244659;27;20071;-84
2023/05/11 09:55:52;;;;;;;8.05;4.72;;;;;;;;;;4239840;27;20443;-84
2023/05/11 09:57:59;;;;;;;10.27;5.70;;;;;;;;;;4240899;27;20040;-84
2023/05/11 10:00:00;;;;;;;10.38;5.40;;;;;;;;;;4234950;28;20381;-85
2023/05/11 10:02:22;;;;;;;7.85;4.65;;;;;;;;;;4240291;27;20911;-84
2023/05/11 10:04:28;;;;;;;8.02;4.60;;;;;;;;;;4246582;27;20049;-84
2023/05/11 10:06:46;;;;;;;9.38;4.63;;;;;;;;;;4239778;27;20084;-84
2023/05/11 10:08:48;;;;;;;7.90;4.57;;;;;;;;;;4238567;27;20083;-84
2023/05/11 10:10:50;;;;;;;7.88;5.13;;;;;;;;;;4228862;28;20062;-83
2023/05/11 10:12:52;;;;;;;7.45;4.32;;;;;;;;;;4252329;27;20099;-84
2023/05/11 10:15:00;;;;;;;7.25;4.13;;;;;;;;;;4254304;27;20096;-84
2023/05/11 10:17:03;;;;;;;8.07;5.00;;;;;;;;;;4250468;27;20043;-84
2023/05/11 10:19:05;;;;;;;6.38;3.97;;;;;;;;;;4254902;27;20509;-84
2023/05/11 10:21:07;;;;;;;5.93;3.80;;;;;;;;;;4254771;27;20501;-84
2023/05/11 10:23:09;;;;;;;6.85;3.90;;;;;;;;;;4255178;27;20394;-83
2023/05/11 10:25:12;;;;;;;6.18;3.75;;;;;;;;;;4256621;27;20437;-84
2023/05/11 10:27:19;;;;;;;6.68;3.67;;;;;;;;;;4256362;27;20463;-84
2023/05/11 10:29:22;;;;;;;6.10;3.75;;;;;;;;;;4254376;27;20043;-83
2023/05/11 10:31:24;;;;;;;5.97;3.75;;;;;;;;;;4253621;27;20054;-83
2023/05/11 10:33:26;;;;;;;5.50;3.28;;;;;;;;;;4254660;27;20514;-83
2023/05/11 10:35:28;;;;;;;5.00;3.15;;;;;;;;;;4253723;27;20086;-83
2023/05/11 10:37:30;;;;;;;5.03;3.40;;;;;;;;;;4254191;27;20055;-84
2023/05/11 10:39:32;;;;;;;5.85;3.45;;;;;;;;;;4253672;27;20728;-85
2023/05/11 10:41:40;;;;;;;5.05;3.58;;;;;;;;;;4250978;27;20042;-83
2023/05/11 10:43:52;;;;;;;5.57;3.33;;;;;;;;;;4239987;28;20488;-83
2023/05/11 10:46:12;;;;;;;6.97;3.28;;;;;;;;;;4220219;28;20040;-84
2023/05/11 10:48:19;;;;;;;5.05;3.30;;;;;;;;;;4239423;28;20043;-84
2023/05/11 10:50:41;;;;;;;5.28;3.05;;;;;;;;;;4231839;28;20046;-84
2023/05/11 10:52:51;;;;;;;5.63;3.20;;;;;;;;;;4236020;28;20051;-85
2023/05/11 10:55:13;;;;;;;4.85;3.20;;;;;;;;;;4236538;28;20144;-84
2023/05/11 10:57:18;;;;;;;5.57;3.50;;;;;;;;;;4254873;27;20099;-84
2023/05/11 10:59:34;;;;;;;6.32;2.80;;;;;;;;;;4246248;27;20361;-84
2023/05/11 11:01:39;;;;;;;5.05;3.10;;;;;;;;;;4236036;27;20471;-84